EBCI - Charleroi/Gosselies, Belgium
Distance de la station: NE 18km
Mise à jour: 23/05/2022 20:20
pluie légère, Drizzle, principalement nuageux
pluie légère, Drizzle, principalement nuageux
 Wind from OSO
Vent: OSO 11 km/h
Température: 12°C
Point de rosée: 12°C
Humidité: 100%
Baromètre: 1002 hPa
Résumé: pluie légère, Drizzle
Ciel: principalement nuageux
Visibilité: 3 km
Détails du ciel: partiellement nuageux 122 m
principalement nuageux 183 m
2022/05/23 18:20 EBCI 231820Z 24006KT 2800 -RADZ SCT004 BKN006 12/12 Q1002 TEMPO 2000 BR BKN004
EBFS - Florennes, Belgium
Distance de la station: ESE 31km
Mise à jour: 23/05/2022 20:23
Light drizzle, principalement nuageux
Light drizzle, principalement nuageux
 Wind from OSO
Vent: OSO 13 km/h
Température: 12°C
Point de rosée: 12°C
Humidité: 100%
Baromètre: 1002 hPa
Résumé: Light Drizzle
Ciel: principalement nuageux
Visibilité: 3 km
Détails du ciel: principalement nuageux 91 m
principalement nuageux 152 m
2022/05/23 18:23 EBFS 231823Z 25007KT 2500 -DZ BKN003 BKN005 12/12 Q1002 YLO YLO TEMPO AMB
EBCV - Chievres, Belgium
Distance de la station: NO 40km
Mise à jour: 23/05/2022 18:55
NOT Current
couvert
couvert
 Wind from O
Vent: O 13 km/h
Température: 14°C
Point de rosée: 13°C
Humidité: 94%
Baromètre: 1001 hPa
Ciel: couvert
Visibilité: 10 km
Détails du ciel: couvert 366 m
2022/05/23 16:55 EBCV 231655Z AUTO 28007KT 9999 OVC012/// 14/13 Q1001 GRN
 
EBBE - Beauvechain, Belgium
Distance de la station: NE 57km
Mise à jour: 23/05/2022 19:55
principalement nuageux
principalement nuageux
 Wind from O
Vent: O 19 km/h
Température: 14°C
Point de rosée: 13°C
Humidité: 94%
Baromètre: 1001 hPa
Ciel: principalement nuageux
Visibilité: 10 km
Détails du ciel: partiellement nuageux 274 m
principalement nuageux 610 m
2022/05/23 17:55 EBBE 231755Z 27010KT 9999 SCT009 BKN020 14/13 Q1001 GRN WHT TEMPO GRN
EBBR - Brussels National, Belgium
Distance de la station: NNE 63km
Mise à jour: 23/05/2022 20:20
principalement nuageux
principalement nuageux
 Wind from O
Vent: O 17 km/h
Température: 14°C
Point de rosée: 12°C
Humidité: 88%
Baromètre: 1001 hPa
Ciel: principalement nuageux
Visibilité: 10 km
Détails du ciel: partiellement nuageux 366 m
principalement nuageux 884 m
2022/05/23 18:20 EBBR 231820Z 26009KT 9999 SCT012 BKN029 14/12 Q1001 TEMPO BKN012 BKN029
LFQI - Cambrai/Epinoy, France
Distance de la station: O 82km
Mise à jour: 29/06/2012 12:30
NOT Current

 Wind from SO
Vent: SO 17 km/h
Température: 18°C
Point de rosée: 14°C
Humidité: 78%
Baromètre: 1009 hPa
2012/06/29 10:30 LFQI 291030Z AUTO 22009KT //// // ///////// 18/14 Q1009
 
LFQQ - Lille/Lesquin, France
Distance de la station: ONO 86km
Mise à jour: 23/05/2022 20:00
couvert
couvert
 Wind from OSO
Vent: OSO 17 km/h
Température: 15°C
Point de rosée: 13°C
Humidité: 88%
Baromètre: 1001 hPa
Ciel: couvert
Visibilité: 10 km
Détails du ciel: principalement nuageux 396 m
couvert 701 m
2022/05/23 18:00 LFQQ 231800Z AUTO 24009KT 9999 BKN013 OVC023 15/13 Q1001 TEMPO 3000 RA BECMG BKN030
EBLG - Bierset/Liege, Belgium
Distance de la station: ENE 89km
Mise à jour: 23/05/2022 20:20
brume, principalement nuageux
brume, principalement nuageux
 Wind from ONO
Vent: ONO 22 km/h
Température: 13°C
Point de rosée: 13°C
Humidité: 100%
Baromètre: 1001 hPa
Résumé: brume
Ciel: principalement nuageux
Visibilité: 2 km
Détails du ciel: partiellement nuageux 91 m
principalement nuageux 152 m
2022/05/23 18:20 EBLG 231820Z 29012KT 2000 BR SCT003 BKN005 13/13 Q1001 TEMPO BKN004
EBDT - Schaffen, Belgium
Distance de la station: NE 93km
Mise à jour: 23/05/2022 20:08
couvert
couvert
 Wind from O
Vent: O 13 km/h
Température: 14°C
Point de rosée: 13°C
Humidité: 94%
Baromètre: 1000 hPa
Ciel: couvert
Visibilité: 5 km
Détails du ciel: couvert 152 m
2022/05/23 18:08 EBDT 231808Z AUTO 28007KT 4800 OVC005/// 14/13 Q1000 YLO
 
EBAW - Antwerp/Deurne, Belgium
Distance de la station: N 96km
Mise à jour: 23/05/2022 20:20
principalement nuageux
principalement nuageux
 Wind from O
Vent: O 17 km/h
Température: 14°C
Point de rosée: 12°C
Humidité: 88%
Baromètre: 1000 hPa
Ciel: principalement nuageux
Visibilité: 10 km
Détails du ciel: principalement nuageux 366 m
principalement nuageux 610 m
2022/05/23 18:20 EBAW 231820Z 26009KT 9999 BKN012 BKN020 14/12 Q1000 TEMPO SCT012 BKN020
LFAQ - Bray, France
Distance de la station: OSO 119km
Mise à jour: 23/05/2022 20:00
principalement nuageux
principalement nuageux
 Wind from O
Vent: O 19 km/h
Température: 13°C
Point de rosée: 12°C
Humidité: 94%
Baromètre: 1003 hPa
Ciel: principalement nuageux
Visibilité: 10 km
Détails du ciel: partiellement nuageux 335 m
partiellement nuageux 488 m
principalement nuageux 671 m
2022/05/23 18:00 LFAQ 231800Z AUTO 28010KT 9999 SCT011 SCT016 BKN022 13/12 Q1003
LFSR - Reims/Champagne, France
Distance de la station: S 120km
Mise à jour: 16/04/2012 09:00
NOT Current
partiellement nuageux
partiellement nuageux
 Wind from N
Vent: N 17 km/h
Température: 4°C
Température ressentie: 0°C
Point de rosée: 0°C
Humidité: 75%
Baromètre: 1022 hPa
Ciel: partiellement nuageux
Visibilité: 10 km
2012/04/16 07:00 LFSR 160700Z AUTO 01009KT 340V070 9999 NSC 04/00 Q1022
 
EHWO - Woensdrecht, Netherlands
Distance de la station: N 122km
Mise à jour: 23/05/2022 19:55
principalement nuageux
principalement nuageux
 Wind from O
Vent: O 11 km/h
Température: 14°C
Point de rosée: 13°C
Humidité: 94%
Baromètre: 999 hPa
Ciel: principalement nuageux
Visibilité: 10 km
Détails du ciel: partiellement nuageux 244 m
principalement nuageux 274 m
principalement nuageux 335 m
2022/05/23 17:55 EHWO 231755Z AUTO 28006KT 240V340 9999 SCT008 BKN009 BKN011 14/13 Q0999 REDZ GRN
EHBK - Zuid-Limburg, Netherlands
Distance de la station: ENE 123km
Mise à jour: 23/05/2022 20:25
Drizzle, principalement nuageux
Drizzle, principalement nuageux
 Wind from O
Vent: O 17 km/h
Température: 15°C
Point de rosée: 14°C
Humidité: 94%
Baromètre: 999 hPa
Résumé: Drizzle
Ciel: principalement nuageux
Visibilité: 7 km
Détails du ciel: quelques nuages 122 m
partiellement nuageux 183 m
principalement nuageux 244 m
2022/05/23 18:25 EHBK 231825Z AUTO 28009KT 220V350 7000 DZ FEW004 SCT006 BKN008 15/14 Q0999 BECMG 8000 NSW TEMPO BKN006
EBBL - Kleine-Brogel, Belgium
Distance de la station: NE 124km
Mise à jour: 23/05/2022 19:55
principalement nuageux
principalement nuageux
 Wind from O
Vent: O 22 km/h
Température: 14°C
Point de rosée: 14°C
Humidité: 100%
Baromètre: 998 hPa
Ciel: principalement nuageux
Visibilité: 4 km
Détails du ciel: partiellement nuageux 183 m
partiellement nuageux 244 m
principalement nuageux 549 m
2022/05/23 17:55 EBBL 231755Z 28012KT 3800 SCT006 SCT008 BKN018 14/14 Q0998 YLO GRN TEMPO YLO
 
EBLB - Elsenborn, Belgium
Distance de la station: E 135km
Mise à jour: 23/05/2022 19:55
couvert
couvert
 Wind from OSO
Vent: OSO 20 km/h
Température: 14°C
Point de rosée: 14°C
Humidité: 100%
Baromètre: 999 hPa
Ciel: couvert
Visibilité: 9 km
Détails du ciel: couvert 183 m
2022/05/23 17:55 EBLB 231755Z AUTO 25011KT 9000 OVC006/// 14/14 Q0999 YLO
EBOS - Oostende Airport, Belgium
Distance de la station: NO 136km
Mise à jour: 23/05/2022 20:20
principalement nuageux
principalement nuageux
 Wind from OSO
Vent: OSO 24 km/h
Température: 13°C
Point de rosée: 12°C
Humidité: 94%
Baromètre: 1001 hPa
Ciel: principalement nuageux
Visibilité: 10 km
Détails du ciel: partiellement nuageux 366 m
principalement nuageux 518 m
2022/05/23 18:20 EBOS 231820Z 25013KT 9999 SCT012 BKN017 13/12 Q1001 TEMPO BKN012
EBFN - Koksijde, Belgium
Distance de la station: NO 140km
Mise à jour: 23/05/2022 20:20
principalement nuageux
principalement nuageux
 Wind from OSO
Vent: OSO 13 km/h
Température: 14°C
Point de rosée: 12°C
Humidité: 88%
Baromètre: 1001 hPa
Ciel: principalement nuageux
Visibilité: 10 km
Détails du ciel: partiellement nuageux 335 m
principalement nuageux 671 m
principalement nuageux 914 m
2022/05/23 18:20 EBFN 231820Z 24007KT 9999 SCT011 BKN022 BKN030 14/12 Q1001 GRN GRN TEMPO WHT
 
ETNG - Geilenkirchen, Germany
Distance de la station: ENE 142km
Mise à jour: 23/05/2022 20:23
Rain showers, couvert
Rain showers, couvert
 Wind from O
Vent: O 41 km/h
Température: 16°C
Point de rosée: 15°C
Humidité: 94%
Baromètre: 998 hPa
Résumé: Rain Showers
Ciel: couvert
Visibilité: 3 km
Détails du ciel: couvert 152 m
2022/05/23 18:23 ETNG 231823Z 27022KT 3000 SHRA OVC005 16/15 Q0998 RETS BECMG NSW
EHGR - Gilze-Rijen, Netherlands
Distance de la station: NNE 143km
Mise à jour: 23/05/2022 20:20
couvert
couvert
 Wind from ONO
Vent: ONO 13 km/h
Température: 14°C
Point de rosée: 13°C
Humidité: 94%
Baromètre: 999 hPa
Ciel: couvert
Visibilité: 10 km
Détails du ciel: quelques nuages 305 m
partiellement nuageux 1006 m
couvert 1494 m
2022/05/23 18:20 EHGR 231820Z AUTO 30007KT 260V330 9999 FEW010 SCT033 OVC049 14/13 Q0999 BLU
EHEH - Eindhoven, Netherlands
Distance de la station: NNE 147km
Mise à jour: 23/05/2022 20:18
Drizzle, quelques nuages
Drizzle, quelques nuages
 Wind from ONO
Vent: ONO 13 km/h
Température: 14°C
Point de rosée: 13°C
Humidité: 94%
Baromètre: 999 hPa
Résumé: Drizzle
Ciel: quelques nuages
Visibilité: 10 km
Détails du ciel: partiellement nuageux 152 m
principalement nuageux 213 m
quelques nuages 457 m
2022/05/23 18:18 EHEH 231818Z AUTO 29007KT 240V360 9999 DZ SCT005 BKN007 FEW015CB 14/13 Q0999 YLO BECMG FEW007 SCT010 BKN013
 
ELLX - Luxembourg, Luxembourg
Distance de la station: ESE 162km
Mise à jour: 23/05/2022 20:20
principalement nuageux
principalement nuageux
 Wind from OSO
Vent: OSO 31 km/h
Température: 15°C
Point de rosée: 14°C
Humidité: 94%
Baromètre: 1002 hPa
Ciel: principalement nuageux
Visibilité: 10 km
Détails du ciel: partiellement nuageux 274 m
principalement nuageux 366 m
2022/05/23 18:20 ELLX 231820Z 25017KT 9999 SCT009 BKN012 15/14 Q1002 NOSIG
EHVK - Volkel, Netherlands
Distance de la station: NE 174km
Mise à jour: 23/05/2022 19:55
pluie légère, Showers, principalement nuageux
pluie légère, Showers, principalement nuageux
 Wind from O
Vent: O 19 km/h
Température: 15°C
Point de rosée: 14°C
Humidité: 94%
Baromètre: 997 hPa
Résumé: pluie légère, Showers
Ciel: principalement nuageux
Visibilité: 5 km
Détails du ciel: principalement nuageux 122 m
principalement nuageux 152 m
principalement nuageux 457 m
2022/05/23 17:55 EHVK 231755Z AUTO 28010KT 240V330 5000 -SHRA BKN004 BKN005 BKN015CB 15/14 Q0997 RETSRA YLO
LFOK - Chalons/Vatry, France
Distance de la station: S 174km
Mise à jour: 23/05/2022 20:00
couvert
couvert
 Wind from O
Vent: O 20 km/h
Température: 17°C
Point de rosée: 13°C
Humidité: 77%
Baromètre: 1004 hPa
Ciel: couvert
Visibilité: 10 km
Détails du ciel: quelques nuages 671 m
couvert 914 m
2022/05/23 18:00 LFOK 231800Z AUTO 26011KT 9999 FEW022 OVC030 17/13 Q1004 NOSIG
Script from Saratoga-Weather.org